Terminal Aerodrome Forecast
Issued by NWS Cleveland, OH

Home | Current Version | Previous Version | Graphics & Text | Print | Product List | Glossary On
Versions: 1 2 3 4 5 6 7 8 9 10 11 12 13 14 15 16 17 18
000
FTUS41 KCLE 010534
TAFTOL
TAF
KTOL 010534Z 0106/0206 27006KT P6SM SCT020 SCT040
      TEMPO 0106/0108 BKN040
     FM010800 28008KT P6SM SCT020 BKN040
      TEMPO 0109/0113 BKN020
     FM011300 29010KT P6SM SCT040 BKN250
      TEMPO 0113/0116 BKN040
     FM011600 30010KT P6SM SCT250
     FM020200 VRB02KT P6SM SKC=

USA.gov is the U.S. government's official web portal to all federal, state and local government web resources and services.